岡山空港の過去48時間の天気

岡山空港 (Okayama)

現在時刻: 10/18 01:35 JST (10/17 16:35 UTC) 以下の時間は現地時間です。

過去48時間のMETAR気象情報
時間 風向 風速(m/s) 視程 気温(℃) 湿度(%) 気圧(hPa) 天気現象
17 21:00 北東 3 10km以上 14 82 1022
17 20:00 3 10km以上 14 77 1022
17 19:00 北北東 5 10km以上 15 72 1022 部分霧
17 18:00 2 7,000m 14 82 1021 散在した霧
17 17:48 北東 1 7,000m 14 100 1021 散在した霧
17 17:29 不定 1 4,500m 15 100 1021 もや 散在した霧
17 17:07 不定 1 2,500m 15 100 1021 もや 散在した霧
17 17:00 北西 1 6,000m 15 100 1021 部分霧
17 16:00 不定 1 9,000m 16 94 1021
17 15:00 東南東 2 9,000m 16 94 1021 部分霧
17 14:00 不定 1 10km以上 16 88 1021
17 13:00 不定 1 10km以上 15 100 1021
17 12:32 不定 1 8,000m 15 94 1022 部分霧
17 12:00 不定 1 5,000m 15 94 1022 もや 散在した霧
17 11:00 不定 1 4,000m 14 100 1023 もや 散在した霧
17 10:44 不定 1 4,000m 14 100 1023 もや 散在した霧
17 10:00 不定 1 3,000m 13 100 1023 もや 散在した霧
17 09:32 不定 1 3,000m 13 100 1023 もや 散在した霧
17 09:00 不定 1 1,500m 13 100 1023 散在した霧 弱い雨 もや
17 08:32 不定 1 1,500m 13 100 1023 散在した霧 もや
17 08:00 静穏 0 2,000m 13 100 1023 弱い雨 もや 散在した霧
17 07:00 不定 1 6,000m 12 100 1022 弱い雨 散在した霧
17 06:15 不定 1 10km以上 12 100 1023 散在した霧
16 21:00 3 9,000m 14 94 1023 弱い雨
16 20:00 2 10km以上 14 100 1023 弱い雨
16 19:00 北西 1 10km以上 15 94 1023 弱い雨 部分霧
16 18:00 不定 1 10km以上 15 94 1022 弱い雨 部分霧
16 17:00 不定 1 10km以上 14 94 1022 散在した霧
16 16:00 東南東 2 10km以上 14 100 1022 部分霧
16 15:00 北東 2 10km以上 14 100 1022 弱い雨 部分霧
16 14:00 2 6,000m 14 100 1022 弱い雨 散在した霧
16 13:33 北北東 3 5,000m 14 94 1022 弱い雨 もや 散在した霧
16 13:00 北北東 3 4,500m 14 94 1022 弱い雨 もや 散在した霧
16 12:00 3 4,500m 14 94 1024 弱い雨 もや 散在した霧
16 11:00 北北東 3 3,500m 14 100 1024 弱い雨 もや 散在した霧
16 10:00 北北東 2 3,500m 14 94 1024 弱い雨 もや 散在した霧
16 09:28 3 3,500m 14 94 1025 弱い雨 もや 散在した霧
16 09:00 3 2,500m 14 100 1025 弱い雨 もや 散在した霧
16 08:20 北北東 2 4,500m 14 94 1025 弱い雨 もや 散在した霧
16 08:00 東北東 2 3,000m 14 94 1024 弱い雨 もや 散在した霧
16 07:32 不定 1 3,000m 14 94 1024 弱い雨 もや 散在した霧
16 07:00 静穏 0 4,000m 13 100 1024 弱い雨 もや 部分霧
16 06:15 北北東 2 5,000m 13 100 1024 弱い雨 もや 部分霧
RJOB 171200Z 04005KT 010V100 9999 FEW020 BKN/// 14/11 Q1022
RJOB 171100Z 01006KT 9999 FEW020 BKN/// 14/10 Q1022
RJOB 171000Z 02009KT 9999 PRFG FEW000 BKN/// 15/10 Q1022
RJOB 170900Z 01004KT 340V050 7000 BCFG FEW000 BKN/// 14/11 Q1021
RJOB 170848Z 05002KT 7000 R07/0750VP2000U BCFG FEW000 BKN/// 14/14 Q1021 RMK 2ST000 A3016 2000S-SW FG NE AND S-SW
RJOB 170829Z VRB01KT 4500 BR BCFG FEW000 BKN/// 15/15 Q1021 RMK 2ST000 A3016 FG NE-E AND S
RJOB 170807Z VRB01KT 2500 BR BCFG FEW000 SCT001 BKN/// 15/15 Q1021 RMK 1ST000 4ST001 A3016 FG ALL QUAD
RJOB 170800Z 31002KT 6000 PRFG FEW000 SCT001 BKN/// 15/15 Q1021
RJOB 170700Z VRB02KT 9000 FEW001 SCT003 BKN/// 16/15 Q1021
RJOB 170600Z 12003KT 9000 PRFG FEW000 SCT010 BKN150 16/15 Q1021
RJOB 170500Z VRB01KT 9999 FEW005 BKN130 16/14 Q1021
RJOB 170400Z VRB01KT 9999 FEW001 SCT005 BKN130 15/15 Q1021
RJOB 170332Z VRB01KT 8000 PRFG FEW000 BKN005 BKN130 15/14 Q1022 RMK 1ST000 5ST005 6AC130 A3018 FG SW
RJOB 170300Z VRB02KT 5000 BR BCFG FEW000 BKN003 BKN130 15/14 Q1022
RJOB 170200Z VRB01KT 4000 BR BCFG FEW000 BKN005 BKN130 14/14 Q1023
RJOB 170144Z VRB02KT 4000 BR BCFG FEW000 SCT002 BKN005 14/14 Q1023 RMK 1ST000 3ST002 5ST005 A3021 FG NE-E AND S-SW
RJOB 170100Z VRB01KT 3000 BR BCFG FEW000 SCT003 BKN004 13/13 Q1023
RJOB 170032Z VRB02KT 3000 BR BCFG FEW000 SCT002 BKN003 13/13 Q1023 RMK 1ST000 4ST002 6ST003 A3021 FG NE-SE AND SW
RJOB 170000Z VRB02KT 1500 R07/1000VP2000D -RA BR BCFG FEW000 SCT001 BKN002 13/13 Q1023
RJOB 162332Z VRB01KT 1500 R07/1000VP2000D BR BCFG FEW000 SCT002 BKN003 13/13 Q1023 RMK 1ST000 3ST002 5ST003 A3021 FG ALL QUAD
RJOB 162300Z 00000KT 2000 -RA BR BCFG FEW000 SCT003 BKN100 13/13 Q1023
RJOB 162200Z VRB01KT 6000 -RA BCFG FEW000 SCT100 BKN120 12/12 Q1022
RJOB 162115Z VRB01KT 9999 BCFG FEW000 SCT080 BKN100 12/12 Q1023 RMK 1ST000 3AC080 5AC100 A3021 3000NE-E FG NE-E AND S
RJOB 161200Z 35006KT 9000 -RA FEW002 SCT050 BKN070 14/13 Q1023
RJOB 161100Z 36003KT 290V050 9999 -RA FEW001 SCT025 BKN070 14/14 Q1023
RJOB 161000Z 31002KT 9999 -RA PRFG FEW000 BKN025 BKN070 15/14 Q1023
RJOB 160900Z VRB02KT 9999 -RA PRFG FEW000 BKN025 BKN070 15/14 Q1022
RJOB 160800Z VRB02KT 9999 BCFG FEW000 BKN025 BKN070 14/13 Q1022
RJOB 160700Z 11003KT 9999 PRFG FEW000 SCT020 BKN050 14/14 Q1022
RJOB 160600Z 04004KT 360V090 9999 -RA PRFG FEW000 SCT015 BKN025 14/14 Q1022
RJOB 160500Z 01003KT 320V050 6000 -RA BCFG FEW000 SCT040 BKN050 14/14 Q1022
RJOB 160433Z 02005KT 5000 -RA BR BCFG FEW000 SCT025 BKN050 14/13 Q1022 RMK 1ST000 3CU025 5SC050 A3019 FG NE-E AND SW
RJOB 160400Z 02005KT 350V070 4500 -RA BR BCFG FEW000 SCT006 BKN025 14/13 Q1022
RJOB 160300Z 01005KT 330V050 4500 -RA BR BCFG FEW000 SCT007 BKN025 14/13 Q1024
RJOB 160200Z 02006KT 3500 -RA BR BCFG FEW000 SCT008 BKN030 14/14 Q1024
RJOB 160100Z 03004KT 340V060 3500 -RA BR BCFG FEW000 SCT004 BKN035 14/13 Q1024
RJOB 160028Z 01006KT 3500 -RA BR BCFG FEW000 SCT004 BKN035 14/13 Q1025 RMK 1ST000 3ST004 5SC035 A3027 FG NE-SE AND SW
RJOB 160000Z 01006KT 320V040 2500 -RA BR BCFG FEW000 SCT005 BKN030 14/14 Q1025
RJOB 152320Z 02004KT 340V050 4500 -RA BR BCFG FEW000 SCT005 BKN035 14/13 Q1025 RMK 1ST000 3ST005 5SC035 A3027 FG NE-E AND SW
RJOB 152300Z 06004KT 020V090 3000 -RA BR BCFG FEW000 SCT003 BKN040 14/13 Q1024
RJOB 152232Z VRB02KT 3000 -RA BR BCFG FEW000 SCT003 BKN030 14/13 Q1024 RMK 1ST000 3ST003 5SC030 A3026 FG ALL QUAD
RJOB 152200Z 00000KT 4000 -RA BR PRFG FEW000 SCT005 BKN050 13/13 Q1024
RJOB 152115Z 02004KT 340V070 5000 -RA BR PRFG FEW000 SCT006 BKN040 13/13 Q1024 RMK 1ST000 3ST006 5SC040 A3025 FG NE-E